Latest Coastal Weather Observations for Strahan

IDT60701

Issued at 3:52 pm EDT Thursday 23 January 2020 (issued every 10 minutes, with the page automatically refreshed every 10 minutes)

About coastal observations | Map of coastal stations | Coastal observations for TAS | Marine services | Other Formats
Station Details ID: 097072 Name: STRAHAN AERODROME Lat: -42.16 Lon: 145.29 Height: 21.0 m
Data from the previous 72 hours. | See also: Recent months at Strahan
Date/Time
EDT
Wind Sea
Height
m
Swell Vis
km
Cloud Weather Temp
°C
Press
hPa
Rain since
9am
mm
Dir  Spd
kts
Gust
kts
Height
m
Period
s
Dir
23/03:30pm N 14 19 - - - - 10 Partly cloudy - 14.4 989.9 7.4
23/03:00pm N 10 14 - - - - 10 Cloudy Rain 13.0 990.2 7.2
23/02:30pm N 13 18 - - - - 10 Partly cloudy - 12.2 990.1 6.4
23/02:00pm N 9 11 - - - - 10 Partly cloudy - 13.2 990.2 5.0
23/01:30pm N 14 22 - - - - 10 Partly cloudy - 13.5 990.2 4.6
23/01:00pm NNW 17 25 - - - - 10 Partly cloudy - 13.8 990.3 4.6
23/12:30pm NNW 12 17 - - - - 10 Partly cloudy - 14.7 990.3 4.2
23/12:00pm N 11 17 - - - - 10 Cloudy Showers 14.2 990.6 3.8
23/11:30am NNW 11 14 - - - - 10 Partly cloudy - 14.1 990.7 3.2
23/11:00am N 4 7 - - - - 10 Partly cloudy - 13.3 990.7 2.4
23/10:33am NNW 5 6 - - - - 10 Partly cloudy - 12.5 991.1 1.8
23/10:30am NNW 5 9 - - - - 10 Partly cloudy - 12.7 991.2 1.8
23/10:00am N 11 15 - - - - 4 Partly cloudy - 12.7 991.7 0.4
23/09:52am N 11 15 - - - - 5 Partly cloudy - 12.7 991.7 0.0
23/09:30am N 9 13 - - - - 10 Partly cloudy - 13.0 991.7 0.0
23/09:00am N 9 12 - - - - 10 Cloudy - 12.8 991.8 34.6
23/08:30am N 8 11 - - - - 10 Partly cloudy - 12.4 992.0 34.6
23/08:00am N 8 11 - - - - 10 Partly cloudy - 12.2 992.3 34.6
23/07:30am N 8 11 - - - - 10 Partly cloudy - 12.1 992.2 34.6
23/07:00am N 8 10 - - - - 10 Cloudy - 12.0 992.5 34.6
23/06:30am N 8 10 - - - - 10 Partly cloudy - 11.9 992.7 34.4
23/06:00am N 9 11 - - - - 10 Cloudy Rain 11.9 992.7 34.4
23/05:30am N 8 11 - - - - 10 Partly cloudy - 11.9 992.9 34.0
23/05:00am N 10 14 - - - - 6 Partly cloudy - 12.0 993.3 33.6
23/04:30am N 8 11 - - - - 10 Partly cloudy - 12.1 993.6 32.8
23/04:00am N 8 11 - - - - 10 Partly cloudy - 12.2 993.8 32.6
23/03:30am N 8 11 - - - - 10 Partly cloudy - 12.2 994.0 32.6
23/03:00am N 8 12 - - - - 10 Cloudy Rain 12.2 993.9 32.6
23/02:30am N 6 9 - - - - 10 Cloudy - 12.2 994.1 32.6
23/02:00am N 5 6 - - - - 10 Partly cloudy - 12.3 994.4 32.2
23/01:30am N 5 7 - - - - 10 Cloudy - 12.3 994.9 31.8
23/01:00am N 5 8 - - - - 10 - - 12.5 995.4 30.8
23/12:30am NNE 6 9 - - - - 10 Cloudy - 12.8 996.0 29.8
23/12:00am NNE 8 11 - - - - 10 Cloudy Rain 13.2 996.5 28.6
 
Date/Time
EDT
Wind Sea
Height
m
Swell Vis
km
Cloud Weather Temp
°C
Press
hPa
Rain since
9am
mm
Dir  Spd
kts
Gust
kts
Height
m
Period
s
Dir
22/11:30pm NNE 8 11 - - - - 10 Cloudy - 13.6 997.0 26.6
22/11:00pm NNE 7 10 - - - - 10 Cloudy - 13.9 997.0 25.0
22/10:30pm N 8 12 - - - - 10 Cloudy - 13.9 997.6 24.4
22/10:00pm N 10 15 - - - - 10 Partly cloudy - 14.4 997.8 23.6
22/09:30pm NNW 11 18 - - - - 10 Partly cloudy - 14.7 997.3 22.2
22/09:00pm N 7 11 - - - - 10 Cloudy Rain 14.8 996.9 21.4
22/08:30pm N 9 12 - - - - 10 Partly cloudy - 14.9 996.8 20.4
22/08:25pm N 9 12 - - - - 10 Partly cloudy - 14.8 996.8 20.4
22/08:19pm N 7 10 - - - - 8 Partly cloudy - 14.8 996.9 20.2
22/08:15pm N 7 9 - - - - 6 Partly cloudy - 14.8 996.9 20.2
22/08:04pm NW 6 9 - - - - 5 Partly cloudy - 14.7 997.1 19.4
22/08:00pm WNW 6 7 - - - - 7 Partly cloudy - 14.7 996.9 19.2
22/07:53pm NNW 5 7 - - - - 8 Partly cloudy - 14.7 997.0 18.8
22/07:42pm N 7 11 - - - - 5 Partly cloudy - 14.7 996.8 18.0
22/07:31pm N 10 13 - - - - 9 Partly cloudy - 14.7 996.8 16.4
22/07:30pm N 10 13 - - - - 10 Partly cloudy - 14.8 996.7 16.4
22/07:00pm NNW 12 15 - - - - 10 Partly cloudy - 14.8 996.6 14.8
22/06:47pm NNW 11 17 - - - - 7 Partly cloudy - 14.9 996.4 14.4
22/06:30pm NW 11 15 - - - - 4 Partly cloudy - 14.9 996.3 13.2
22/06:00pm NNW 9 12 - - - - 5 Mostly cloudy Showers 14.8 996.5 9.8
22/05:40pm NNW 6 8 - - - - 5 Cloudy - 15.1 996.7 8.0
22/05:34pm NNW 5 7 - - - - 6 Cloudy - 15.0 996.5 7.2
22/05:30pm NNW 4 6 - - - - 6 Cloudy - 15.0 996.4 7.0
22/05:02pm W 11 15 - - - - 5 Partly cloudy - 14.9 996.3 5.2
22/05:00pm W 11 15 - - - - 4 Partly cloudy - 15.0 996.4 5.0
22/04:30pm W 21 33 - - - - 3 Partly cloudy - 16.0 995.7 1.4
22/04:27pm W 21 33 - - - - 5 Partly cloudy - 16.2 995.4 0.8
22/04:24pm W 18 31 - - - - 9 Partly cloudy - 16.8 995.1 0.2
22/04:18pm NW 15 25 - - - - 10 Partly cloudy - 19.4 995.4 0.0
22/04:00pm NNE 15 25 - - - - 10 Cloudy - 22.7 993.8 0.0
22/03:51pm NNE 15 25 - - - - 10 Cloudy - 22.8 993.7 0.0
22/03:30pm NNE 15 24 - - - - 10 Cloudy - 23.0 994.0 0.0
22/03:00pm NNE 18 31 - - - - 10 Mostly cloudy - 23.9 994.6 0.0
22/02:30pm N 22 36 - - - - 10 Cloudy - 24.9 995.0 0.0
22/02:00pm N 20 30 - - - - 10 Cloudy - 24.9 995.1 0.0
22/01:30pm NNE 19 32 - - - - 10 Partly cloudy - 25.3 995.0 0.0
22/01:00pm NNE 20 33 - - - - 10 Cloudy - 26.0 995.0 0.0
22/12:30pm NNE 23 35 - - - - 10 - - 25.9 995.7 0.0
22/12:03pm N 21 32 - - - - 10 - - 25.9 996.2 0.0
22/12:00pm N 21 29 - - - - 10 - - 25.9 996.3 0.0
22/11:30am NNE 19 39 - - - - 10 - - 24.8 997.0 0.0
22/11:27am NNE 20 39 - - - - 10 - - 24.3 996.9 0.0
22/11:00am NNE 18 29 - - - - 10 - - 23.0 997.4 0.0
22/10:48am NNE 15 27 - - - - 10 - - 22.2 997.7 0.0
22/10:30am NNE 15 23 - - - - 10 - - 20.8 998.2 0.0
22/10:05am NNE 16 26 - - - - 10 - - 20.6 998.4 0.0
22/10:00am NNE 17 25 - - - - 10 - - 20.6 998.4 0.0
22/09:30am NNE 20 32 - - - - 10 - - 20.2 998.7 0.0
22/09:03am NNE 17 27 - - - - 10 - - 20.4 998.8 0.0
22/09:00am NNE 16 23 - - - - 10 Partly cloudy - 20.3 998.8 0.0
22/08:30am NNE 18 29 - - - - 10 - - 19.5 999.0 0.0
22/08:03am NNE 16 26 - - - - 10 - - 18.6 999.2 0.0
22/08:00am NNE 17 23 - - - - 10 - - 18.5 999.2 0.0
22/07:30am NNE 10 16 - - - - 10 - - 16.3 999.4 0.0
22/07:00am NE 9 15 - - - - 10 - - 13.4 999.5 0.0
22/06:30am NNE 8 11 - - - - 10 - - 12.5 1000.0 0.0
22/06:00am N 7 10 - - - - 10 Mostly clear - 11.5 1000.6 0.0
22/05:30am NNE 8 11 - - - - 10 - - 11.4 1001.0 0.0
22/05:00am NNE 7 9 - - - - 10 - - 10.3 1001.5 0.0
22/04:30am NNE 6 7 - - - - 10 - - 9.6 1001.8 0.0
22/04:00am NNE 7 9 - - - - 10 - - 9.5 1002.1 0.0
22/03:30am NE 3 4 - - - - 10 - - 8.7 1002.5 0.0
22/03:00am ENE 6 8 - - - - 10 - - 8.2 1003.1 0.0
22/02:30am NE 6 8 - - - - 10 - - 8.5 1004.0 0.0
22/02:00am NNE 6 7 - - - - 10 - - 8.8 1004.3 0.0
22/01:30am NNE 6 7 - - - - 10 - - 9.2 1004.6 0.0
22/01:00am NNE 5 6 - - - - 10 - - 8.3 1004.8 0.0
22/12:30am N 5 6 - - - - 10 - - 9.8 1005.3 0.0
22/12:00am NNE 5 6 - - - - 10 Mostly clear - 10.5 1005.5 0.0
 
Date/Time
EDT
Wind Sea
Height
m
Swell Vis
km
Cloud Weather Temp
°C
Press
hPa
Rain since
9am
mm
Dir  Spd
kts
Gust
kts
Height
m
Period
s
Dir
21/11:30pm NNE 5 7 - - - - 10 Cloudy - 11.4 1005.9 0.0
21/11:00pm NNW 5 7 - - - - 10 Cloudy - 11.7 1006.4 0.0
21/10:30pm NNW 5 6 - - - - 10 Cloudy - 11.6 1006.6 0.0
21/10:00pm NNW 4 6 - - - - 10 Cloudy - 11.8 1006.7 0.0
21/09:30pm NW 4 5 - - - - 10 Cloudy - 12.0 1006.7 0.0
21/09:00pm WNW 5 6 - - - - 10 Mostly cloudy - 12.7 1006.6 0.0
21/08:30pm WNW 6 8 - - - - 10 Partly cloudy - 13.5 1006.7 0.0
21/08:00pm W 6 8 - - - - 10 Cloudy - 14.3 1006.6 0.0
21/07:30pm WSW 7 8 - - - - 10 Cloudy - 14.9 1006.4 0.0
21/07:00pm W 8 10 - - - - 10 Cloudy - 15.3 1006.6 0.0
21/06:30pm WSW 9 13 - - - - 10 Cloudy - 15.7 1006.7 0.0
21/06:00pm W 11 15 - - - - 10 Partly cloudy - 16.8 1006.6 0.0
21/05:30pm W 12 16 - - - - 10 Partly cloudy - 16.8 1006.7 0.0
21/05:00pm WSW 13 17 - - - - 10 Cloudy - 16.5 1006.8 0.0
21/04:30pm WSW 12 16 - - - - 10 Partly cloudy - 17.4 1006.9 0.0
21/04:00pm WSW 11 18 - - - - 10 Partly cloudy - 17.8 1006.8 0.0
21/03:30pm WSW 11 18 - - - - 10 - - 17.7 1006.8 0.0
21/03:00pm WSW 12 16 - - - - 10 - - 17.5 1006.9 0.0
21/02:30pm WSW 11 16 - - - - 10 - - 18.0 1006.8 0.0
21/02:00pm WSW 13 16 - - - - 10 - - 17.2 1006.9 0.0
21/01:30pm WSW 13 16 - - - - 10 - - 17.8 1007.1 0.0
21/01:00pm WSW 12 15 - - - - 10 Partly cloudy - 17.7 1007.3 0.0
21/12:30pm WSW 13 17 - - - - 10 Partly cloudy - 16.7 1007.4 0.0
21/12:00pm WSW 9 12 - - - - 10 Cloudy - 16.8 1007.3 0.0
21/11:30am SSW 7 11 - - - - 10 Partly cloudy - 16.4 1007.4 0.0
21/11:00am SSW 8 11 - - - - 10 Cloudy - 16.3 1007.6 0.0
21/10:30am SSW 7 10 - - - - 10 Partly cloudy - 15.5 1007.7 0.0
21/10:00am S 6 8 - - - - 10 Partly cloudy - 15.2 1007.8 0.0
21/09:30am S 8 11 - - - - 10 Partly cloudy - 14.8 1007.8 0.0
21/09:00am S 8 11 - - - - 10 Cloudy - 14.4 1007.6 0.0
21/08:52am S 8 11 - - - - 10 Partly cloudy - 14.4 1007.5 0.0
21/08:30am S 8 11 - - - - 10 Cloudy - 13.9 1007.4 0.0
21/08:00am S 8 11 - - - - 10 Cloudy - 13.5 1007.0 0.0
21/07:30am SSW 9 13 - - - - 10 Cloudy - 13.2 1006.6 0.0
21/07:00am SSW 9 12 - - - - 10 Cloudy - 13.0 1006.6 0.0
21/06:30am S 10 13 - - - - 10 Cloudy - 13.2 1006.2 0.0
21/06:00am S 11 16 - - - - 10 Cloudy - 13.3 1006.1 0.0
21/05:30am S 11 15 - - - - 10 Cloudy - 13.1 1006.0 0.0
21/05:00am S 10 14 - - - - 10 Cloudy - 13.2 1006.0 0.0
21/04:30am SSW 12 16 - - - - 10 Cloudy - 13.1 1006.1 0.0
21/04:00am SSW 11 15 - - - - 10 Cloudy - 13.2 1006.0 0.0
21/03:30am S 9 12 - - - - 10 Cloudy - 13.4 1006.1 0.0
21/03:00am S 7 13 - - - - 10 Cloudy - 13.4 1006.3 0.0
21/02:30am SSE 7 11 - - - - 10 Cloudy - 13.4 1006.4 0.0
21/02:00am S 9 14 - - - - 10 Cloudy - 13.2 1006.4 0.0
21/01:30am S 11 15 - - - - 10 Cloudy - 12.8 1006.2 0.0
21/01:10am SSW 9 13 - - - - 10 Partly cloudy - 12.3 1006.1 0.0
21/01:00am SSW 8 11 - - - - 10 Partly cloudy - 11.8 1006.1 0.0
21/12:30am SSW 9 11 - - - - 10 Partly cloudy - 12.3 1006.1 0.0
21/12:00am SSW 6 9 - - - - 10 Mostly cloudy - 13.0 1006.0 0.0
 
Date/Time
EDT
Wind Sea
Height
m
Swell Vis
km
Cloud Weather Temp
°C
Press
hPa
Rain since
9am
mm
Dir  Spd
kts
Gust
kts
Height
m
Period
s
Dir
20/11:30pm S 8 9 - - - - 10 Partly cloudy - 12.8 1005.8 0.0
20/11:00pm SSW 8 9 - - - - 10 Partly cloudy - 13.0 1005.8 0.0
20/10:30pm S 9 13 - - - - 10 - - 14.1 1005.6 0.0
20/10:00pm S 10 12 - - - - 10 - - 14.0 1005.5 0.0
20/09:30pm SSW 12 14 - - - - 10 - - 14.5 1005.3 0.0
20/09:00pm SSW 11 13 - - - - 10 - - 14.9 1005.0 0.0
20/08:30pm SSW 11 14 - - - - 10 - - 16.1 1004.7 0.0
20/08:00pm SSW 12 15 - - - - 10 - - 17.8 1004.5 0.0
20/07:30pm SSW 10 13 - - - - 10 - - 19.6 1004.4 0.0
20/07:00pm SSW 11 15 - - - - 10 - - 21.3 1004.4 0.0
20/06:30pm SSW 13 16 - - - - 10 - - 21.5 1004.3 0.0
20/06:00pm SSW 14 18 - - - - 10 Mostly clear - 21.5 1004.5 0.0
20/05:30pm SSW 15 19 - - - - 10 Partly cloudy - 21.3 1004.8 0.0
20/05:00pm SSW 14 18 - - - - 10 Partly cloudy - 21.8 1005.0 0.0
20/04:30pm SSW 14 18 - - - - 10 Partly cloudy - 22.2 1005.1 0.0
20/04:00pm SW 11 15 - - - - 10 - - 22.5 1005.3 0.0

Other formats

Comma delimited format used in spreadsheet applications
http://www.bom.gov.au/fwo/IDT60701/IDT60701.94956.axf

JavaScript Object Notation format (JSON) in row-major order
http://www.bom.gov.au/fwo/IDT60701/IDT60701.94956.json

Data quality

Most of these data are generated automatically and are frequently updated. Quality checks on data are not normally performed. It is possible for incorrect values to appear. Refer to information at About Latest Weather Observations and please check the disclaimer before using these data.